Cabot Strait: Past 24 Hour Conditions

 

St. Anthony Airport

10:30 AM NST 28 February 2017
Disclaimer

This table is a summary of hourly weather conditions for the past 24 hours.
Please note that these observations might not always be representative of weather conditions over their associated marine area.

Date / Time
(NST)
Wind(knots) Conditions Visibility(km) Pressure(kPa) Air tempC) Relative humidity(%) Dew pointC) Wind Chill
28 February 2017
10:30 WSW 27 Drifting Snow 2 101.4 -12 69 -16 -24
9:30 WSW 21 gust 26 Drifting Snow 3 101.3 -11 71 -15 -22
8:30 WSW 17 Sunny 16 101.3 -12 68 -17 -22
7:30 W 11 gust 18 Sunny 16 101.3 -12 67 -17 -21
6:30 W 12 Clear 16 101.2 -12 69 -17 -21
5:30 W 14 Clear 16 101.1 -11 67 -16 -20
4:30 W 12 Cloudy 16 101.1 -9 68 -14 -17
3:30 NW 10 Cloudy 16 100.9 -8 67 -13 -14
2:30 WNW 9 Cloudy 16 100.8 -7 79 -10 -13
1:30 NW 10 gust 17 Light Snow 13 100.8 -6 83 -9 -13
0:30 WSW 15 gust 21 Light Snow 11 100.7 -4 84 -7 -12
27 February 2017
23:30 WSW 13 Mostly Cloudy 16 100.7 -5 87 -7 -12
22:30 WSW 10 Clear 16 100.8 -5 87 -7 -11
21:30 WSW 9 Mostly Cloudy 16 100.8 -5 86 -7 -11
20:30 WSW 7 Light Snow 8 100.7 -5 90 -6 -10
19:30 WSW 14 gust 19 Light Snow 13 100.7 -5 87 -7 -12
18:30 WSW 19 gust 25 Clear 16 100.7 -5 77 -9 -14
17:30 WSW 26 gust 34 Sunny 16 100.7 -6 66 -11 -16
16:30 WSW 23 gust 29 Sunny 16 100.7 -6 66 -11 -15
15:30 WSW 25 gust 36 Sunny 16 100.6 -6 62 -12 -16
14:30 WSW 29 gust 36 Sunny 16 100.5 -7 65 -12 -18
13:30 WSW 24 gust 29 Mainly Sunny 16 100.5 -7 66 -13 -18
12:30 WSW 24 gust 31 Partly Cloudy 16 100.4 -8 63 -14 -18
11:30 WSW 23 gust 30 Cloudy 16 100.4 -8 65 -14 -18
10:30 W 20 gust 27 Cloudy 16 100.3 -8 68 -13 -18

Zoom-in to make a selection

Map of Atlantic - Newfoundland marine weather areas Southwestern Grand Banks - 44138 Banquereau - 44139 Tail of the Bank - 44140 Nickerson Bank - 44251 Northeast Burgeo Bank - 44255 Blanc-Sablon Airport Cap Whittle Chevery Natashquan Airport Heath Point Miscou Island Grand Étang Ingonish Beach North Mountain St.Paul Island J.A. Douglas McCurdy Sydney Airport Charlottetown Airport East Point North Cape Argentia Bonavista Burgeo Cape Race Corner Brook Daniel's Harbour Englee Ferolle Point La Scie Port aux Basques Rocky Harbour Sagona Island St. Anthony Airport St. John's Int'l Airport St. Lawrence Stephenville Airport Twillingate Winterland Wreckhouse Cartwright Airport Mary's Harbour Grates Cove Pool's Island Marticot Island Long Pond Eskasoni (First Nations) Îles de la Madeleine Airport
Legend:
buoy Buoy
land station Land Station

Atlantic - Newfoundland Area

Another Region

What we are doing

Date modified: